sensor_id;sensor_type;location;lat;lon;timestamp;temperature;humidity
41592;DHT22;28026;48.562;14.440;2023-05-19T00:00:01;8.10;99.90
41592;DHT22;28026;48.562;14.440;2023-05-19T00:02:34;8.10;99.90
41592;DHT22;28026;48.562;14.440;2023-05-19T00:05:05;8.10;99.90
41592;DHT22;28026;48.562;14.440;2023-05-19T00:07:37;8.00;99.90
41592;DHT22;28026;48.562;14.440;2023-05-19T00:10:08;8.10;99.90
41592;DHT22;28026;48.562;14.440;2023-05-19T00:12:40;8.10;99.90
41592;DHT22;28026;48.562;14.440;2023-05-19T00:15:13;8.00;99.90
41592;DHT22;28026;48.562;14.440;2023-05-19T00:17:44;8.10;99.90
41592;DHT22;28026;48.562;14.440;2023-05-19T00:20:15;8.00;99.90
41592;DHT22;28026;48.562;14.440;2023-05-19T00:22:46;8.00;99.90
41592;DHT22;28026;48.562;14.440;2023-05-19T00:25:17;8.00;99.90
41592;DHT22;28026;48.562;14.440;2023-05-19T00:27:48;8.00;99.90
41592;DHT22;28026;48.562;14.440;2023-05-19T00:30:19;8.10;99.90
41592;DHT22;28026;48.562;14.440;2023-05-19T00:32:52;8.00;99.90
41592;DHT22;28026;48.562;14.440;2023-05-19T00:35:23;8.10;99.90
41592;DHT22;28026;48.562;14.440;2023-05-19T00:37:54;8.10;99.90
41592;DHT22;28026;48.562;14.440;2023-05-19T00:40:24;8.00;99.90
41592;DHT22;28026;48.562;14.440;2023-05-19T00:42:59;8.00;99.90
41592;DHT22;28026;48.562;14.440;2023-05-19T00:45:30;8.10;99.90
41592;DHT22;28026;48.562;14.440;2023-05-19T00:48:01;8.00;99.90
41592;DHT22;28026;48.562;14.440;2023-05-19T00:50:31;8.00;99.90
41592;DHT22;28026;48.562;14.440;2023-05-19T00:53:03;7.90;99.90
41592;DHT22;28026;48.562;14.440;2023-05-19T00:55:33;7.90;99.90
41592;DHT22;28026;48.562;14.440;2023-05-19T00:58:09;8.00;99.90
41592;DHT22;28026;48.562;14.440;2023-05-19T01:00:43;8.00;99.90
41592;DHT22;28026;48.562;14.440;2023-05-19T01:03:14;8.00;99.90
41592;DHT22;28026;48.562;14.440;2023-05-19T01:05:49;8.00;99.90
41592;DHT22;28026;48.562;14.440;2023-05-19T01:08:22;8.00;99.90
41592;DHT22;28026;48.562;14.440;2023-05-19T01:10:53;7.90;99.90
41592;DHT22;28026;48.562;14.440;2023-05-19T01:13:25;7.90;99.90
41592;DHT22;28026;48.562;14.440;2023-05-19T01:16:14;7.90;99.90
41592;DHT22;28026;48.562;14.440;2023-05-19T01:31:42;7.90;99.90
41592;DHT22;28026;48.562;14.440;2023-05-19T01:34:17;7.80;99.90
41592;DHT22;28026;48.562;14.440;2023-05-19T01:36:52;7.80;99.90
41592;DHT22;28026;48.562;14.440;2023-05-19T01:39:25;7.90;99.90
41592;DHT22;28026;48.562;14.440;2023-05-19T01:41:57;7.80;99.90
41592;DHT22;28026;48.562;14.440;2023-05-19T01:44:30;7.90;99.90
41592;DHT22;28026;48.562;14.440;2023-05-19T01:47:02;7.80;99.90
41592;DHT22;28026;48.562;14.440;2023-05-19T01:49:34;8.00;99.90
41592;DHT22;28026;48.562;14.440;2023-05-19T01:52:05;8.00;99.90
41592;DHT22;28026;48.562;14.440;2023-05-19T01:54:36;7.90;99.90
41592;DHT22;28026;48.562;14.440;2023-05-19T02:08:56;8.00;99.90
41592;DHT22;28026;48.562;14.440;2023-05-19T02:11:45;8.00;99.90
41592;DHT22;28026;48.562;14.440;2023-05-19T02:17:26;8.10;99.90
41592;DHT22;28026;48.562;14.440;2023-05-19T02:20:05;8.10;99.90
41592;DHT22;28026;48.562;14.440;2023-05-19T02:22:38;8.10;99.90
41592;DHT22;28026;48.562;14.440;2023-05-19T02:25:10;8.10;99.90
41592;DHT22;28026;48.562;14.440;2023-05-19T02:27:41;8.00;99.90
41592;DHT22;28026;48.562;14.440;2023-05-19T02:30:12;8.00;99.90
41592;DHT22;28026;48.562;14.440;2023-05-19T02:32:42;8.00;99.90
41592;DHT22;28026;48.562;14.440;2023-05-19T02:35:16;7.90;99.90
41592;DHT22;28026;48.562;14.440;2023-05-19T02:37:46;8.00;99.90
41592;DHT22;28026;48.562;14.440;2023-05-19T02:40:17;8.00;99.90
41592;DHT22;28026;48.562;14.440;2023-05-19T02:42:48;8.00;99.90
41592;DHT22;28026;48.562;14.440;2023-05-19T02:45:19;7.90;99.90
41592;DHT22;28026;48.562;14.440;2023-05-19T02:47:50;7.90;99.90
41592;DHT22;28026;48.562;14.440;2023-05-19T02:50:21;7.90;99.90
41592;DHT22;28026;48.562;14.440;2023-05-19T02:52:51;7.90;99.90
41592;DHT22;28026;48.562;14.440;2023-05-19T02:55:23;7.90;99.90
41592;DHT22;28026;48.562;14.440;2023-05-19T02:57:53;7.90;99.90
41592;DHT22;28026;48.562;14.440;2023-05-19T03:00:25;7.90;99.90
41592;DHT22;28026;48.562;14.440;2023-05-19T03:02:55;8.00;99.90
41592;DHT22;28026;48.562;14.440;2023-05-19T03:05:31;8.00;99.90
41592;DHT22;28026;48.562;14.440;2023-05-19T03:08:02;8.00;99.90
41592;DHT22;28026;48.562;14.440;2023-05-19T03:10:33;8.00;99.90
41592;DHT22;28026;48.562;14.440;2023-05-19T03:13:05;8.00;99.90
41592;DHT22;28026;48.562;14.440;2023-05-19T03:15:36;8.00;99.90
41592;DHT22;28026;48.562;14.440;2023-05-19T03:18:06;7.90;99.90
41592;DHT22;28026;48.562;14.440;2023-05-19T03:20:37;7.90;99.90
41592;DHT22;28026;48.562;14.440;2023-05-19T03:23:09;7.70;99.90
41592;DHT22;28026;48.562;14.440;2023-05-19T03:25:40;7.70;99.90
41592;DHT22;28026;48.562;14.440;2023-05-19T03:28:11;7.70;99.90
41592;DHT22;28026;48.562;14.440;2023-05-19T03:30:42;7.80;99.90
41592;DHT22;28026;48.562;14.440;2023-05-19T03:33:12;7.80;99.90
41592;DHT22;28026;48.562;14.440;2023-05-19T03:35:43;7.90;99.90
41592;DHT22;28026;48.562;14.440;2023-05-19T03:38:14;7.70;99.90
41592;DHT22;28026;48.562;14.440;2023-05-19T03:40:45;7.70;99.90
41592;DHT22;28026;48.562;14.440;2023-05-19T03:43:15;7.70;99.90
41592;DHT22;28026;48.562;14.440;2023-05-19T03:45:46;7.70;99.90
41592;DHT22;28026;48.562;14.440;2023-05-19T03:48:17;7.70;99.90
41592;DHT22;28026;48.562;14.440;2023-05-19T03:50:48;7.70;99.90
41592;DHT22;28026;48.562;14.440;2023-05-19T03:53:19;7.70;99.90
41592;DHT22;28026;48.562;14.440;2023-05-19T03:55:50;7.80;99.90
41592;DHT22;28026;48.562;14.440;2023-05-19T03:58:21;7.80;99.90
41592;DHT22;28026;48.562;14.440;2023-05-19T04:00:51;7.80;99.90
41592;DHT22;28026;48.562;14.440;2023-05-19T04:03:22;7.80;99.90
41592;DHT22;28026;48.562;14.440;2023-05-19T04:05:55;7.80;99.90
41592;DHT22;28026;48.562;14.440;2023-05-19T04:08:26;7.80;99.90
41592;DHT22;28026;48.562;14.440;2023-05-19T04:10:56;7.80;99.90
41592;DHT22;28026;48.562;14.440;2023-05-19T04:13:27;7.90;99.90
41592;DHT22;28026;48.562;14.440;2023-05-19T04:15:58;7.90;99.90
41592;DHT22;28026;48.562;14.440;2023-05-19T04:18:29;7.90;99.90
41592;DHT22;28026;48.562;14.440;2023-05-19T04:21:00;7.90;99.90
41592;DHT22;28026;48.562;14.440;2023-05-19T04:23:31;7.90;99.90
41592;DHT22;28026;48.562;14.440;2023-05-19T04:26:01;7.90;99.90
41592;DHT22;28026;48.562;14.440;2023-05-19T04:28:33;8.00;99.90
41592;DHT22;28026;48.562;14.440;2023-05-19T04:31:05;7.90;99.90
41592;DHT22;28026;48.562;14.440;2023-05-19T04:33:40;8.00;99.90
41592;DHT22;28026;48.562;14.440;2023-05-19T04:36:11;7.90;99.90
41592;DHT22;28026;48.562;14.440;2023-05-19T04:38:42;8.00;99.90
41592;DHT22;28026;48.562;14.440;2023-05-19T04:41:15;8.10;99.90
41592;DHT22;28026;48.562;14.440;2023-05-19T04:43:46;8.10;99.90
41592;DHT22;28026;48.562;14.440;2023-05-19T04:46:17;8.20;99.90
41592;DHT22;28026;48.562;14.440;2023-05-19T04:48:53;8.30;99.90
41592;DHT22;28026;48.562;14.440;2023-05-19T04:51:24;8.40;99.90
41592;DHT22;28026;48.562;14.440;2023-05-19T04:53:57;8.60;99.90
41592;DHT22;28026;48.562;14.440;2023-05-19T04:56:28;8.80;99.90
41592;DHT22;28026;48.562;14.440;2023-05-19T04:58:59;8.80;99.90
41592;DHT22;28026;48.562;14.440;2023-05-19T05:01:30;8.90;99.90
41592;DHT22;28026;48.562;14.440;2023-05-19T05:04:03;9.10;99.90
41592;DHT22;28026;48.562;14.440;2023-05-19T05:06:33;9.20;99.90
41592;DHT22;28026;48.562;14.440;2023-05-19T05:09:07;9.20;99.90
41592;DHT22;28026;48.562;14.440;2023-05-19T05:11:39;9.20;99.90
41592;DHT22;28026;48.562;14.440;2023-05-19T05:14:11;9.10;99.90
41592;DHT22;28026;48.562;14.440;2023-05-19T05:16:42;9.00;99.90
41592;DHT22;28026;48.562;14.440;2023-05-19T05:19:13;9.00;99.90
41592;DHT22;28026;48.562;14.440;2023-05-19T05:21:44;9.30;99.90
41592;DHT22;28026;48.562;14.440;2023-05-19T05:24:16;9.30;99.90
41592;DHT22;28026;48.562;14.440;2023-05-19T05:26:47;9.20;99.90
41592;DHT22;28026;48.562;14.440;2023-05-19T05:29:18;9.30;99.90
41592;DHT22;28026;48.562;14.440;2023-05-19T05:31:50;9.20;99.90
41592;DHT22;28026;48.562;14.440;2023-05-19T05:34:21;9.60;99.90
41592;DHT22;28026;48.562;14.440;2023-05-19T05:36:52;9.60;99.90
41592;DHT22;28026;48.562;14.440;2023-05-19T05:39:22;9.60;99.90
41592;DHT22;28026;48.562;14.440;2023-05-19T05:41:53;9.60;99.90
41592;DHT22;28026;48.562;14.440;2023-05-19T05:44:24;9.60;99.90
41592;DHT22;28026;48.562;14.440;2023-05-19T05:46:55;9.60;99.90
41592;DHT22;28026;48.562;14.440;2023-05-19T05:49:26;9.70;99.90
41592;DHT22;28026;48.562;14.440;2023-05-19T05:51:58;9.70;99.90
41592;DHT22;28026;48.562;14.440;2023-05-19T05:54:29;9.80;99.90
41592;DHT22;28026;48.562;14.440;2023-05-19T05:57:00;9.80;99.90
41592;DHT22;28026;48.562;14.440;2023-05-19T05:59:31;9.90;99.90
41592;DHT22;28026;48.562;14.440;2023-05-19T06:02:03;9.80;99.90
41592;DHT22;28026;48.562;14.440;2023-05-19T06:04:33;9.70;99.90
41592;DHT22;28026;48.562;14.440;2023-05-19T06:07:05;9.70;99.90
41592;DHT22;28026;48.562;14.440;2023-05-19T06:09:35;9.90;99.90
41592;DHT22;28026;48.562;14.440;2023-05-19T06:12:06;10.10;99.90
41592;DHT22;28026;48.562;14.440;2023-05-19T06:14:37;10.00;99.90
41592;DHT22;28026;48.562;14.440;2023-05-19T06:17:08;10.00;99.90
41592;DHT22;28026;48.562;14.440;2023-05-19T06:19:39;9.90;99.90
41592;DHT22;28026;48.562;14.440;2023-05-19T06:22:09;10.00;99.90
41592;DHT22;28026;48.562;14.440;2023-05-19T06:24:40;10.10;99.90
41592;DHT22;28026;48.562;14.440;2023-05-19T06:27:11;10.20;99.90
41592;DHT22;28026;48.562;14.440;2023-05-19T06:29:42;10.20;99.90
41592;DHT22;28026;48.562;14.440;2023-05-19T06:32:12;10.30;99.90
41592;DHT22;28026;48.562;14.440;2023-05-19T06:34:44;10.10;99.90
41592;DHT22;28026;48.562;14.440;2023-05-19T06:37:15;10.20;99.90
41592;DHT22;28026;48.562;14.440;2023-05-19T06:39:49;10.30;99.90
41592;DHT22;28026;48.562;14.440;2023-05-19T06:42:22;10.20;99.90
41592;DHT22;28026;48.562;14.440;2023-05-19T06:44:54;10.20;99.90
41592;DHT22;28026;48.562;14.440;2023-05-19T06:47:25;10.10;99.90
41592;DHT22;28026;48.562;14.440;2023-05-19T06:49:55;10.30;99.90
41592;DHT22;28026;48.562;14.440;2023-05-19T06:52:26;10.40;99.90
41592;DHT22;28026;48.562;14.440;2023-05-19T06:54:57;10.40;99.90
41592;DHT22;28026;48.562;14.440;2023-05-19T06:57:28;10.40;99.90
41592;DHT22;28026;48.562;14.440;2023-05-19T06:59:59;10.50;99.90
41592;DHT22;28026;48.562;14.440;2023-05-19T07:02:30;10.60;99.90
41592;DHT22;28026;48.562;14.440;2023-05-19T07:05:00;10.70;99.90
41592;DHT22;28026;48.562;14.440;2023-05-19T07:07:32;10.80;99.90
41592;DHT22;28026;48.562;14.440;2023-05-19T07:10:03;11.10;99.90
41592;DHT22;28026;48.562;14.440;2023-05-19T07:12:34;11.50;99.90
41592;DHT22;28026;48.562;14.440;2023-05-19T07:15:05;12.00;99.90
41592;DHT22;28026;48.562;14.440;2023-05-19T07:17:36;12.20;99.90
41592;DHT22;28026;48.562;14.440;2023-05-19T07:20:07;12.20;99.90
41592;DHT22;28026;48.562;14.440;2023-05-19T07:22:39;12.60;99.90
41592;DHT22;28026;48.562;14.440;2023-05-19T07:25:10;12.50;99.90
41592;DHT22;28026;48.562;14.440;2023-05-19T07:27:40;12.60;99.90
41592;DHT22;28026;48.562;14.440;2023-05-19T07:30:11;12.20;99.90
41592;DHT22;28026;48.562;14.440;2023-05-19T07:32:42;12.20;99.90
41592;DHT22;28026;48.562;14.440;2023-05-19T07:35:13;12.50;99.90
41592;DHT22;28026;48.562;14.440;2023-05-19T07:37:44;12.50;99.90
41592;DHT22;28026;48.562;14.440;2023-05-19T07:40:15;12.30;99.90
41592;DHT22;28026;48.562;14.440;2023-05-19T07:42:47;12.30;99.90
41592;DHT22;28026;48.562;14.440;2023-05-19T07:45:19;12.90;99.90
41592;DHT22;28026;48.562;14.440;2023-05-19T07:47:50;13.30;99.90
41592;DHT22;28026;48.562;14.440;2023-05-19T07:50:21;13.90;99.90
41592;DHT22;28026;48.562;14.440;2023-05-19T07:52:52;14.40;99.90
41592;DHT22;28026;48.562;14.440;2023-05-19T07:55:23;14.30;99.90
41592;DHT22;28026;48.562;14.440;2023-05-19T07:57:55;14.80;99.90
41592;DHT22;28026;48.562;14.440;2023-05-19T08:00:26;15.50;99.90
41592;DHT22;28026;48.562;14.440;2023-05-19T08:02:57;15.40;99.90
41592;DHT22;28026;48.562;14.440;2023-05-19T08:05:29;15.40;99.90
41592;DHT22;28026;48.562;14.440;2023-05-19T08:08:00;15.10;99.90
41592;DHT22;28026;48.562;14.440;2023-05-19T08:10:32;14.70;99.90
41592;DHT22;28026;48.562;14.440;2023-05-19T08:13:02;14.80;99.90
41592;DHT22;28026;48.562;14.440;2023-05-19T08:15:34;15.30;99.90
41592;DHT22;28026;48.562;14.440;2023-05-19T08:18:05;15.30;99.90
41592;DHT22;28026;48.562;14.440;2023-05-19T08:20:36;15.40;99.90
41592;DHT22;28026;48.562;14.440;2023-05-19T08:23:07;15.30;99.90
41592;DHT22;28026;48.562;14.440;2023-05-19T08:25:38;15.60;99.90
41592;DHT22;28026;48.562;14.440;2023-05-19T08:28:09;16.10;99.90
41592;DHT22;28026;48.562;14.440;2023-05-19T08:30:40;16.60;99.90
41592;DHT22;28026;48.562;14.440;2023-05-19T08:33:11;16.90;99.90
41592;DHT22;28026;48.562;14.440;2023-05-19T08:35:42;17.10;99.90
41592;DHT22;28026;48.562;14.440;2023-05-19T08:38:13;17.20;99.90
41592;DHT22;28026;48.562;14.440;2023-05-19T08:40:45;17.10;99.90
41592;DHT22;28026;48.562;14.440;2023-05-19T08:43:17;16.90;99.90
41592;DHT22;28026;48.562;14.440;2023-05-19T08:45:48;17.00;99.90
41592;DHT22;28026;48.562;14.440;2023-05-19T08:48:20;17.50;99.90
41592;DHT22;28026;48.562;14.440;2023-05-19T08:53:41;17.70;99.90
41592;DHT22;28026;48.562;14.440;2023-05-19T08:56:22;17.30;99.90
41592;DHT22;28026;48.562;14.440;2023-05-19T08:58:55;17.40;99.90
41592;DHT22;28026;48.562;14.440;2023-05-19T09:01:29;17.60;99.90
41592;DHT22;28026;48.562;14.440;2023-05-19T09:04:01;17.90;99.90
41592;DHT22;28026;48.562;14.440;2023-05-19T09:06:33;18.00;99.90
41592;DHT22;28026;48.562;14.440;2023-05-19T09:09:04;17.90;99.90
41592;DHT22;28026;48.562;14.440;2023-05-19T09:11:35;18.00;99.90
41592;DHT22;28026;48.562;14.440;2023-05-19T09:14:06;18.20;99.90
41592;DHT22;28026;48.562;14.440;2023-05-19T09:16:37;18.20;99.90
41592;DHT22;28026;48.562;14.440;2023-05-19T09:19:12;18.10;99.90
41592;DHT22;28026;48.562;14.440;2023-05-19T09:22:03;18.40;99.90
41592;DHT22;28026;48.562;14.440;2023-05-19T09:24:34;18.10;99.90
41592;DHT22;28026;48.562;14.440;2023-05-19T09:27:05;18.80;99.90
41592;DHT22;28026;48.562;14.440;2023-05-19T09:29:38;18.90;99.90
41592;DHT22;28026;48.562;14.440;2023-05-19T09:32:08;19.50;99.90
41592;DHT22;28026;48.562;14.440;2023-05-19T09:34:40;19.20;99.90
41592;DHT22;28026;48.562;14.440;2023-05-19T09:37:11;19.10;99.90
41592;DHT22;28026;48.562;14.440;2023-05-19T09:39:43;18.00;99.90
41592;DHT22;28026;48.562;14.440;2023-05-19T09:42:25;17.20;99.90
41592;DHT22;28026;48.562;14.440;2023-05-19T09:44:58;17.30;99.90
41592;DHT22;28026;48.562;14.440;2023-05-19T09:47:36;17.60;99.90
41592;DHT22;28026;48.562;14.440;2023-05-19T09:50:09;17.00;99.90
41592;DHT22;28026;48.562;14.440;2023-05-19T09:52:42;16.90;99.90
41592;DHT22;28026;48.562;14.440;2023-05-19T09:55:13;17.20;99.90
41592;DHT22;28026;48.562;14.440;2023-05-19T09:57:44;17.30;99.90
41592;DHT22;28026;48.562;14.440;2023-05-19T10:00:15;17.40;99.90
41592;DHT22;28026;48.562;14.440;2023-05-19T10:02:48;17.20;99.90
41592;DHT22;28026;48.562;14.440;2023-05-19T10:05:20;17.30;99.90
41592;DHT22;28026;48.562;14.440;2023-05-19T10:07:51;17.30;99.90
41592;DHT22;28026;48.562;14.440;2023-05-19T10:10:24;16.80;99.90
41592;DHT22;28026;48.562;14.440;2023-05-19T10:12:58;16.70;99.90
41592;DHT22;28026;48.562;14.440;2023-05-19T10:15:29;17.10;99.90
41592;DHT22;28026;48.562;14.440;2023-05-19T10:18:01;17.00;99.90
41592;DHT22;28026;48.562;14.440;2023-05-19T10:20:33;16.80;99.90
41592;DHT22;28026;48.562;14.440;2023-05-19T10:23:05;16.70;99.90
41592;DHT22;28026;48.562;14.440;2023-05-19T10:25:36;16.80;99.90
41592;DHT22;28026;48.562;14.440;2023-05-19T10:28:08;16.90;99.90
41592;DHT22;28026;48.562;14.440;2023-05-19T10:30:46;16.60;99.90
41592;DHT22;28026;48.562;14.440;2023-05-19T10:33:25;16.60;99.90
41592;DHT22;28026;48.562;14.440;2023-05-19T10:36:26;16.60;99.90
41592;DHT22;28026;48.562;14.440;2023-05-19T10:39:05;17.10;99.90
41592;DHT22;28026;48.562;14.440;2023-05-19T10:44:56;17.00;99.90
41592;DHT22;28026;48.562;14.440;2023-05-19T10:47:49;17.00;99.90
41592;DHT22;28026;48.562;14.440;2023-05-19T10:50:20;16.90;99.90
41592;DHT22;28026;48.562;14.440;2023-05-19T10:52:52;16.60;99.90
41592;DHT22;28026;48.562;14.440;2023-05-19T11:01:19;16.90;99.90
41592;DHT22;28026;48.562;14.440;2023-05-19T11:03:53;17.50;99.90
41592;DHT22;28026;48.562;14.440;2023-05-19T11:06:27;18.50;99.90
41592;DHT22;28026;48.562;14.440;2023-05-19T11:09:08;19.30;99.90
41592;DHT22;28026;48.562;14.440;2023-05-19T11:11:46;18.90;99.90
41592;DHT22;28026;48.562;14.440;2023-05-19T11:14:26;18.90;99.90
41592;DHT22;28026;48.562;14.440;2023-05-19T11:16:57;18.80;99.90
41592;DHT22;28026;48.562;14.440;2023-05-19T11:19:30;17.50;99.90
41592;DHT22;28026;48.562;14.440;2023-05-19T11:22:07;17.40;99.90
41592;DHT22;28026;48.562;14.440;2023-05-19T11:24:44;17.90;99.90
41592;DHT22;28026;48.562;14.440;2023-05-19T11:32:40;19.50;99.90
41592;DHT22;28026;48.562;14.440;2023-05-19T11:35:12;19.30;99.90
41592;DHT22;28026;48.562;14.440;2023-05-19T11:37:44;19.00;99.90
41592;DHT22;28026;48.562;14.440;2023-05-19T11:40:16;19.20;99.90
41592;DHT22;28026;48.562;14.440;2023-05-19T11:42:47;18.90;99.90
41592;DHT22;28026;48.562;14.440;2023-05-19T11:45:23;19.20;99.90
41592;DHT22;28026;48.562;14.440;2023-05-19T11:47:55;18.80;99.90
41592;DHT22;28026;48.562;14.440;2023-05-19T11:50:28;19.30;99.90
41592;DHT22;28026;48.562;14.440;2023-05-19T11:53:01;19.80;99.90
41592;DHT22;28026;48.562;14.440;2023-05-19T11:55:32;20.10;99.90
41592;DHT22;28026;48.562;14.440;2023-05-19T11:58:03;19.60;99.90
41592;DHT22;28026;48.562;14.440;2023-05-19T12:00:35;19.20;99.90
41592;DHT22;28026;48.562;14.440;2023-05-19T12:03:08;18.70;99.90
41592;DHT22;28026;48.562;14.440;2023-05-19T12:05:43;19.40;99.90
41592;DHT22;28026;48.562;14.440;2023-05-19T12:08:17;19.70;99.90
41592;DHT22;28026;48.562;14.440;2023-05-19T12:10:48;19.40;99.90
41592;DHT22;28026;48.562;14.440;2023-05-19T12:13:20;19.10;99.90
41592;DHT22;28026;48.562;14.440;2023-05-19T12:15:52;18.60;99.90
41592;DHT22;28026;48.562;14.440;2023-05-19T12:18:23;18.70;99.90
41592;DHT22;28026;48.562;14.440;2023-05-19T12:21:00;19.10;99.90
41592;DHT22;28026;48.562;14.440;2023-05-19T12:23:32;19.30;99.90
41592;DHT22;28026;48.562;14.440;2023-05-19T12:26:03;19.50;99.90
41592;DHT22;28026;48.562;14.440;2023-05-19T12:28:35;19.50;99.90
41592;DHT22;28026;48.562;14.440;2023-05-19T12:31:06;19.70;99.90
41592;DHT22;28026;48.562;14.440;2023-05-19T12:33:37;20.30;99.90
41592;DHT22;28026;48.562;14.440;2023-05-19T12:36:08;20.30;99.90
41592;DHT22;28026;48.562;14.440;2023-05-19T12:38:39;19.90;99.90
41592;DHT22;28026;48.562;14.440;2023-05-19T12:41:11;20.20;99.90
41592;DHT22;28026;48.562;14.440;2023-05-19T12:43:42;20.50;99.90
41592;DHT22;28026;48.562;14.440;2023-05-19T12:46:13;20.90;99.90
41592;DHT22;28026;48.562;14.440;2023-05-19T12:48:45;20.30;99.90
41592;DHT22;28026;48.562;14.440;2023-05-19T12:51:17;19.80;99.90
41592;DHT22;28026;48.562;14.440;2023-05-19T12:53:49;19.30;99.90
41592;DHT22;28026;48.562;14.440;2023-05-19T12:56:20;18.60;99.90
41592;DHT22;28026;48.562;14.440;2023-05-19T12:58:54;18.70;99.90
41592;DHT22;28026;48.562;14.440;2023-05-19T13:01:25;18.90;99.90
41592;DHT22;28026;48.562;14.440;2023-05-19T13:03:55;18.90;99.90
41592;DHT22;28026;48.562;14.440;2023-05-19T13:06:26;18.80;99.90
41592;DHT22;28026;48.562;14.440;2023-05-19T13:08:57;18.70;99.90
41592;DHT22;28026;48.562;14.440;2023-05-19T13:11:28;18.30;99.90
41592;DHT22;28026;48.562;14.440;2023-05-19T13:13:59;18.10;99.90
41592;DHT22;28026;48.562;14.440;2023-05-19T13:16:29;17.90;99.90
41592;DHT22;28026;48.562;14.440;2023-05-19T13:19:00;17.80;99.90
41592;DHT22;28026;48.562;14.440;2023-05-19T13:21:31;17.70;99.90
41592;DHT22;28026;48.562;14.440;2023-05-19T13:24:02;18.70;99.90
41592;DHT22;28026;48.562;14.440;2023-05-19T13:26:34;19.80;99.90
41592;DHT22;28026;48.562;14.440;2023-05-19T13:29:05;19.60;99.90
41592;DHT22;28026;48.562;14.440;2023-05-19T13:31:36;19.00;99.90
41592;DHT22;28026;48.562;14.440;2023-05-19T13:34:07;18.80;99.90
41592;DHT22;28026;48.562;14.440;2023-05-19T13:36:38;20.10;99.90
41592;DHT22;28026;48.562;14.440;2023-05-19T13:39:09;18.50;99.90
41592;DHT22;28026;48.562;14.440;2023-05-19T13:41:39;18.40;99.90
41592;DHT22;28026;48.562;14.440;2023-05-19T13:44:10;18.40;99.90
41592;DHT22;28026;48.562;14.440;2023-05-19T13:46:41;18.30;99.90
41592;DHT22;28026;48.562;14.440;2023-05-19T13:49:12;18.30;99.90
41592;DHT22;28026;48.562;14.440;2023-05-19T13:51:43;17.80;99.90
41592;DHT22;28026;48.562;14.440;2023-05-19T13:54:13;17.70;99.90
41592;DHT22;28026;48.562;14.440;2023-05-19T13:56:44;17.70;99.90
41592;DHT22;28026;48.562;14.440;2023-05-19T13:59:17;17.80;99.90
41592;DHT22;28026;48.562;14.440;2023-05-19T14:01:50;17.90;99.90
41592;DHT22;28026;48.562;14.440;2023-05-19T14:04:21;18.10;99.90
41592;DHT22;28026;48.562;14.440;2023-05-19T14:06:53;17.90;99.90
41592;DHT22;28026;48.562;14.440;2023-05-19T14:09:24;17.50;99.90
41592;DHT22;28026;48.562;14.440;2023-05-19T14:11:55;17.30;99.90
41592;DHT22;28026;48.562;14.440;2023-05-19T14:14:26;17.30;99.90
41592;DHT22;28026;48.562;14.440;2023-05-19T14:16:57;17.50;99.90
41592;DHT22;28026;48.562;14.440;2023-05-19T14:19:28;17.60;99.90
41592;DHT22;28026;48.562;14.440;2023-05-19T14:21:59;17.50;99.90
41592;DHT22;28026;48.562;14.440;2023-05-19T14:24:30;17.20;99.90
41592;DHT22;28026;48.562;14.440;2023-05-19T14:27:00;17.20;99.90
41592;DHT22;28026;48.562;14.440;2023-05-19T14:29:31;17.10;99.90
41592;DHT22;28026;48.562;14.440;2023-05-19T14:32:02;17.20;99.90
41592;DHT22;28026;48.562;14.440;2023-05-19T14:34:34;17.30;99.90
41592;DHT22;28026;48.562;14.440;2023-05-19T14:37:05;17.30;99.90
41592;DHT22;28026;48.562;14.440;2023-05-19T14:39:36;17.20;99.90
41592;DHT22;28026;48.562;14.440;2023-05-19T14:42:07;17.00;99.90
41592;DHT22;28026;48.562;14.440;2023-05-19T14:44:38;16.50;99.90
41592;DHT22;28026;48.562;14.440;2023-05-19T14:47:08;16.50;99.90
41592;DHT22;28026;48.562;14.440;2023-05-19T14:49:40;16.00;99.90
41592;DHT22;28026;48.562;14.440;2023-05-19T14:52:11;16.60;99.90
41592;DHT22;28026;48.562;14.440;2023-05-19T14:54:41;16.50;99.90
41592;DHT22;28026;48.562;14.440;2023-05-19T14:57:12;16.60;99.90
41592;DHT22;28026;48.562;14.440;2023-05-19T14:59:43;16.80;99.90
41592;DHT22;28026;48.562;14.440;2023-05-19T15:02:14;16.90;99.90
41592;DHT22;28026;48.562;14.440;2023-05-19T15:04:44;16.70;99.90
41592;DHT22;28026;48.562;14.440;2023-05-19T15:07:15;16.60;99.90
41592;DHT22;28026;48.562;14.440;2023-05-19T15:09:46;16.50;99.90
41592;DHT22;28026;48.562;14.440;2023-05-19T15:12:17;16.50;99.90
41592;DHT22;28026;48.562;14.440;2023-05-19T15:14:48;16.50;99.90
41592;DHT22;28026;48.562;14.440;2023-05-19T15:17:18;16.50;99.90
41592;DHT22;28026;48.562;14.440;2023-05-19T15:19:49;16.60;99.90
41592;DHT22;28026;48.562;14.440;2023-05-19T15:22:20;16.60;99.90
41592;DHT22;28026;48.562;14.440;2023-05-19T15:24:51;16.50;99.90
41592;DHT22;28026;48.562;14.440;2023-05-19T15:27:21;16.50;99.90
41592;DHT22;28026;48.562;14.440;2023-05-19T15:29:52;16.60;99.90
41592;DHT22;28026;48.562;14.440;2023-05-19T15:32:23;16.70;99.90
41592;DHT22;28026;48.562;14.440;2023-05-19T15:34:54;16.90;99.90
41592;DHT22;28026;48.562;14.440;2023-05-19T15:37:24;16.80;99.90
41592;DHT22;28026;48.562;14.440;2023-05-19T15:39:55;16.80;99.90
41592;DHT22;28026;48.562;14.440;2023-05-19T15:42:26;16.90;99.90
41592;DHT22;28026;48.562;14.440;2023-05-19T15:44:57;16.90;99.90
41592;DHT22;28026;48.562;14.440;2023-05-19T15:47:28;16.70;99.90
41592;DHT22;28026;48.562;14.440;2023-05-19T15:49:58;16.70;99.90
41592;DHT22;28026;48.562;14.440;2023-05-19T15:52:29;16.50;99.90
41592;DHT22;28026;48.562;14.440;2023-05-19T15:55:00;16.20;99.90
41592;DHT22;28026;48.562;14.440;2023-05-19T15:57:31;16.50;99.90
41592;DHT22;28026;48.562;14.440;2023-05-19T16:00:02;16.70;99.90
41592;DHT22;28026;48.562;14.440;2023-05-19T16:02:33;16.60;99.90
41592;DHT22;28026;48.562;14.440;2023-05-19T16:05:04;16.50;99.90
41592;DHT22;28026;48.562;14.440;2023-05-19T16:07:34;16.20;99.90
41592;DHT22;28026;48.562;14.440;2023-05-19T16:10:05;16.50;99.90
41592;DHT22;28026;48.562;14.440;2023-05-19T16:12:37;16.40;99.90
41592;DHT22;28026;48.562;14.440;2023-05-19T16:15:08;16.50;99.90
41592;DHT22;28026;48.562;14.440;2023-05-19T16:17:39;16.60;99.90
41592;DHT22;28026;48.562;14.440;2023-05-19T16:20:10;16.50;99.90
41592;DHT22;28026;48.562;14.440;2023-05-19T16:22:41;16.40;99.90
41592;DHT22;28026;48.562;14.440;2023-05-19T16:25:12;16.30;99.90
41592;DHT22;28026;48.562;14.440;2023-05-19T16:27:43;16.30;99.90
41592;DHT22;28026;48.562;14.440;2023-05-19T16:30:14;15.90;99.90
41592;DHT22;28026;48.562;14.440;2023-05-19T16:32:45;16.40;99.90
41592;DHT22;28026;48.562;14.440;2023-05-19T16:35:16;16.70;99.90